Time;durP1;ratioP1;P1;durP2;ratioP2;P2;SDS_P1;SDS_P2;PMS_P1;PMS_P2;Temp;Humidity;BMP_temperature;BMP_pressure;BME280_temperature;BME280_humidity;BME280_pressure;Samples;Min_cycle;Max_cycle;Signal;HPM_P1;HPM_P2
2021/07/19 00:02:12;;;;;;;12.23;9.45;;;;;;;;;;3592460;40;20243;-82
2021/07/19 00:04:40;;;;;;;10.98;9.15;;;;;;;;;;3592401;40;20235;-80
2021/07/19 00:07:21;;;;;;;13.85;9.10;;;;;;;;;;3584917;40;20293;-79
2021/07/19 00:10:01;;;;;;;13.75;8.73;;;;;;;;;;3592689;40;20234;-81
2021/07/19 00:12:28;;;;;;;12.05;8.90;;;;;;;;;;3592374;40;20227;-80
2021/07/19 00:14:56;;;;;;;11.70;9.95;;;;;;;;;;3592556;40;20239;-80
2021/07/19 00:17:23;;;;;;;9.68;8.05;;;;;;;;;;3592471;40;20239;-83
2021/07/19 00:20:02;;;;;;;10.70;9.25;;;;;;;;;;3592041;40;20316;-81
2021/07/19 00:22:32;;;;;;;16.15;9.27;;;;;;;;;;3592257;40;20239;-80
2021/07/19 00:24:59;;;;;;;11.57;9.50;;;;;;;;;;3590951;40;20235;-81
2021/07/19 00:27:27;;;;;;;9.60;8.57;;;;;;;;;;3587513;40;20230;-79
2021/07/19 00:29:55;;;;;;;11.00;8.98;;;;;;;;;;3588321;40;20326;-81
2021/07/19 00:32:41;;;;;;;11.85;9.05;;;;;;;;;;3582409;40;20238;-79
2021/07/19 00:35:09;;;;;;;10.30;9.13;;;;;;;;;;3582494;40;20216;-81
2021/07/19 00:37:56;;;;;;;11.25;8.45;;;;;;;;;;3582173;40;20238;-81
2021/07/19 00:40:24;;;;;;;13.13;8.07;;;;;;;;;;3582312;40;20244;-79
2021/07/19 00:42:52;;;;;;;10.65;9.63;;;;;;;;;;3575656;40;20306;-81
2021/07/19 00:45:32;;;;;;;12.20;8.88;;;;;;;;;;3592459;40;20207;-79
2021/07/19 00:48:11;;;;;;;10.30;8.93;;;;;;;;;;3592389;40;20238;-81
2021/07/19 00:50:40;;;;;;;10.57;9.00;;;;;;;;;;3583308;40;20734;-81
2021/07/19 00:53:09;;;;;;;11.30;9.05;;;;;;;;;;3575174;40;20241;-79
2021/07/19 00:55:45;;;;;;;10.43;9.20;;;;;;;;;;3584128;40;20230;-82
2021/07/19 00:58:27;;;;;;;12.25;8.77;;;;;;;;;;3592015;40;20305;-82
2021/07/19 01:00:56;;;;;;;15.25;9.32;;;;;;;;;;3575300;40;20293;-80
2021/07/19 01:03:42;;;;;;;13.07;8.07;;;;;;;;;;3591630;40;20246;-80
2021/07/19 01:06:17;;;;;;;10.95;7.93;;;;;;;;;;3581957;40;20239;-80
2021/07/19 01:08:48;;;;;;;10.98;8.38;;;;;;;;;;3582114;40;20689;-82
2021/07/19 01:14:26;;;;;;;10.68;8.15;;;;;;;;;;3681911;23;21963;-78
2021/07/19 01:16:54;;;;;;;8.60;7.72;;;;;;;;;;3724181;23;20279;-78
2021/07/19 01:25:14;;;;;;;8.63;7.63;;;;;;;;;;3711744;23;20267;-79
2021/07/19 01:27:53;;;;;;;13.98;8.10;;;;;;;;;;3659085;23;20349;-78
2021/07/19 01:30:21;;;;;;;14.70;7.95;;;;;;;;;;3679049;23;20285;-84
2021/07/19 01:35:24;;;;;;;15.70;8.60;;;;;;;;;;3918167;23;20232;-80
2021/07/19 01:40:41;;;;;;;11.40;7.75;;;;;;;;;;3869809;23;20235;-80
2021/07/19 01:48:20;;;;;;;14.07;8.15;;;;;;;;;;3896741;23;20248;-79
2021/07/19 01:51:11;;;;;;;10.18;7.70;;;;;;;;;;3726810;23;20251;-82
2021/07/19 01:56:49;;;;;;;10.57;7.55;;;;;;;;;;3786949;23;20290;-83
2021/07/19 01:59:21;;;;;;;9.10;7.57;;;;;;;;;;3909424;23;20420;-83
2021/07/19 02:02:16;;;;;;;8.40;7.07;;;;;;;;;;3773135;23;20809;31
2021/07/19 02:04:47;;;;;;;10.70;7.13;;;;;;;;;;3777518;23;20257;-78
2021/07/19 02:07:35;;;;;;;11.65;8.25;;;;;;;;;;3867772;23;20508;31
2021/07/19 02:10:22;;;;;;;13.93;7.38;;;;;;;;;;3727625;23;20259;-80
2021/07/19 02:15:52;;;;;;;8.60;7.47;;;;;;;;;;3804070;23;21151;31
2021/07/19 02:27:03;;;;;;;10.95;6.72;;;;;;;;;;3687568;23;20309;31
2021/07/19 02:29:38;;;;;;;14.68;8.25;;;;;;;;;;3872207;22;20227;-78
2021/07/19 02:32:06;;;;;;;10.13;6.28;;;;;;;;;;3685607;23;20298;-81
2021/07/19 02:37:48;;;;;;;17.88;9.15;;;;;;;;;;3754046;22;20242;-84
2021/07/19 02:43:10;;;;;;;11.05;7.60;;;;;;;;;;3657232;22;20254;-79
2021/07/19 02:45:53;;;;;;;12.55;8.63;;;;;;;;;;3685741;23;20243;-82
2021/07/19 02:48:21;;;;;;;10.18;7.78;;;;;;;;;;3728847;23;20258;-80
2021/07/19 02:51:01;;;;;;;9.80;8.60;;;;;;;;;;3700853;22;21078;-84
2021/07/19 02:53:40;;;;;;;14.10;8.25;;;;;;;;;;3779273;22;20237;-80
2021/07/19 02:56:08;;;;;;;12.43;8.10;;;;;;;;;;3697498;23;20245;-81
2021/07/19 02:58:43;;;;;;;13.57;7.82;;;;;;;;;;3662403;23;20239;-83
2021/07/19 03:06:51;;;;;;;13.18;8.07;;;;;;;;;;3683700;22;21126;31
2021/07/19 03:09:23;;;;;;;11.45;7.10;;;;;;;;;;3734641;22;20328;-82
2021/07/19 03:11:55;;;;;;;12.50;7.13;;;;;;;;;;3789190;23;20298;-79
2021/07/19 03:14:28;;;;;;;10.38;6.78;;;;;;;;;;3667925;22;20233;-83
2021/07/19 03:17:10;;;;;;;16.17;8.13;;;;;;;;;;3728985;22;20242;-79
2021/07/19 03:19:44;;;;;;;14.82;7.32;;;;;;;;;;3698044;23;20255;-78
2021/07/19 03:22:22;;;;;;;8.85;7.22;;;;;;;;;;3738365;22;20295;-80
2021/07/19 03:25:10;;;;;;;14.60;7.55;;;;;;;;;;3680327;23;20235;-81
2021/07/19 03:27:42;;;;;;;14.47;7.20;;;;;;;;;;3856832;22;20267;-83
2021/07/19 03:30:10;;;;;;;11.40;7.75;;;;;;;;;;3719410;22;20246;31
2021/07/19 03:32:44;;;;;;;12.77;7.57;;;;;;;;;;3694476;22;20266;-81
2021/07/19 03:35:16;;;;;;;10.93;6.82;;;;;;;;;;3692150;22;20233;-81
2021/07/19 03:38:03;;;;;;;14.15;8.50;;;;;;;;;;3719213;22;20237;-79
2021/07/19 03:40:37;;;;;;;11.85;7.47;;;;;;;;;;3700038;22;20250;-81
2021/07/19 03:43:04;;;;;;;12.68;7.50;;;;;;;;;;3650247;23;20232;-78
2021/07/19 03:45:52;;;;;;;13.15;8.45;;;;;;;;;;3658899;23;20241;-77
2021/07/19 03:48:23;;;;;;;8.77;6.95;;;;;;;;;;3757273;23;20585;-82
2021/07/19 03:50:51;;;;;;;9.75;7.72;;;;;;;;;;3742815;23;20282;-80
2021/07/19 03:53:19;;;;;;;9.63;7.68;;;;;;;;;;3789010;22;20316;-80
2021/07/19 03:56:05;;;;;;;11.95;7.25;;;;;;;;;;3756149;23;20236;-83
2021/07/19 03:58:37;;;;;;;11.40;7.18;;;;;;;;;;3637906;22;20289;-84
2021/07/19 04:01:06;;;;;;;10.90;6.32;;;;;;;;;;3595858;40;20227;-86
2021/07/19 04:04:04;;;;;;;10.70;6.57;;;;;;;;;;3657810;22;20230;-82
2021/07/19 04:06:34;;;;;;;12.88;7.05;;;;;;;;;;3676297;23;20242;-82
2021/07/19 04:09:09;;;;;;;11.45;6.13;;;;;;;;;;3637016;22;20246;-83
2021/07/19 04:11:45;;;;;;;9.65;6.35;;;;;;;;;;3585818;40;20250;-83
2021/07/19 04:14:16;;;;;;;8.88;5.80;;;;;;;;;;3585835;40;20227;-84
2021/07/19 04:16:46;;;;;;;10.20;6.60;;;;;;;;;;3726420;23;20242;-83
2021/07/19 04:19:15;;;;;;;10.02;7.47;;;;;;;;;;3683159;22;20263;-85
2021/07/19 04:21:47;;;;;;;10.18;6.25;;;;;;;;;;3749098;22;20258;-85
2021/07/19 04:24:41;;;;;;;10.73;6.50;;;;;;;;;;3763370;22;20242;-80
2021/07/19 04:27:15;;;;;;;11.77;7.15;;;;;;;;;;3823944;22;20235;-82
2021/07/19 04:29:48;;;;;;;15.48;8.02;;;;;;;;;;3755537;22;20335;-84
2021/07/19 04:32:23;;;;;;;12.10;5.97;;;;;;;;;;3725798;22;20250;-81
2021/07/19 04:35:01;;;;;;;6.55;5.95;;;;;;;;;;3661458;23;20234;-84
2021/07/19 04:37:34;;;;;;;9.73;6.07;;;;;;;;;;3778740;22;20289;-82
2021/07/19 04:40:08;;;;;;;10.73;6.53;;;;;;;;;;3842056;22;20277;-83
2021/07/19 04:42:42;;;;;;;11.75;6.07;;;;;;;;;;3735017;22;20274;-84
2021/07/19 04:45:27;;;;;;;10.25;6.13;;;;;;;;;;3724392;23;20262;-82
2021/07/19 04:50:40;;;;;;;9.77;6.57;;;;;;;;;;3832056;22;20254;-84
2021/07/19 04:53:28;;;;;;;14.82;7.90;;;;;;;;;;3738926;22;20300;-81
2021/07/19 04:56:18;;;;;;;15.65;7.63;;;;;;;;;;3734096;22;20249;-82
2021/07/19 04:58:52;;;;;;;12.60;7.22;;;;;;;;;;3775526;22;20276;-83
2021/07/19 05:01:32;;;;;;;11.05;6.63;;;;;;;;;;3759388;22;20226;-82
2021/07/19 05:06:49;;;;;;;11.50;6.63;;;;;;;;;;3758334;22;20760;-81
2021/07/19 05:09:23;;;;;;;10.52;7.35;;;;;;;;;;3696800;22;20237;-82
2021/07/19 05:12:11;;;;;;;10.25;6.63;;;;;;;;;;3698121;22;20265;-83
2021/07/19 05:17:39;;;;;;;13.30;6.65;;;;;;;;;;3671233;22;20252;-84
2021/07/19 05:20:13;;;;;;;11.55;5.85;;;;;;;;;;3870260;22;20282;-83
2021/07/19 05:25:39;;;;;;;9.40;7.30;;;;;;;;;;3808027;22;21033;31
2021/07/19 05:28:07;;;;;;;10.20;6.60;;;;;;;;;;3782953;22;20308;-84
2021/07/19 05:30:36;;;;;;;6.82;5.88;;;;;;;;;;3723660;23;20288;-82
2021/07/19 05:33:06;;;;;;;8.25;6.47;;;;;;;;;;3776668;22;20245;-80
2021/07/19 05:38:08;;;;;;;12.18;7.50;;;;;;;;;;3753168;22;20230;-81
2021/07/19 05:43:37;;;;;;;14.68;7.78;;;;;;;;;;3798628;22;21129;-81
2021/07/19 05:48:54;;;;;;;10.60;7.38;;;;;;;;;;3617328;22;20629;-41
2021/07/19 05:51:21;;;;;;;10.10;7.15;;;;;;;;;;3583339;40;20242;-40
2021/07/19 05:53:48;;;;;;;16.42;8.52;;;;;;;;;;3580930;40;20238;-39
2021/07/19 05:56:22;;;;;;;15.10;8.70;;;;;;;;;;3585487;40;20245;-42
2021/07/19 05:58:51;;;;;;;13.02;7.22;;;;;;;;;;3578689;40;20255;-40
2021/07/19 06:01:18;;;;;;;16.65;7.03;;;;;;;;;;3574421;40;20547;-41
2021/07/19 06:03:45;;;;;;;9.88;6.40;;;;;;;;;;3576462;40;20242;-40
2021/07/19 06:06:13;;;;;;;9.95;7.05;;;;;;;;;;3574765;40;20235;-42
2021/07/19 06:08:40;;;;;;;12.00;5.50;;;;;;;;;;3577458;40;20328;-43
2021/07/19 06:11:13;;;;;;;11.55;6.47;;;;;;;;;;3567723;40;20247;-40
2021/07/19 06:13:41;;;;;;;14.75;6.35;;;;;;;;;;3566757;40;20884;-40
2021/07/19 06:16:15;;;;;;;18.30;7.88;;;;;;;;;;3567273;40;20235;-40
2021/07/19 06:18:42;;;;;;;14.52;6.40;;;;;;;;;;3567758;40;20275;-42
2021/07/19 06:21:10;;;;;;;12.68;6.75;;;;;;;;;;3567636;40;20243;-40
2021/07/19 06:23:37;;;;;;;13.18;6.30;;;;;;;;;;3567841;40;20666;-41
2021/07/19 06:26:04;;;;;;;9.65;5.63;;;;;;;;;;3568439;40;20265;-40
2021/07/19 06:28:32;;;;;;;7.50;5.57;;;;;;;;;;3567596;40;20247;-40
2021/07/19 06:31:05;;;;;;;10.65;5.35;;;;;;;;;;3567903;40;20244;-41
2021/07/19 06:33:34;;;;;;;12.80;5.80;;;;;;;;;;3570856;40;20495;-40
2021/07/19 06:36:01;;;;;;;11.02;5.90;;;;;;;;;;3577809;40;20239;-42
2021/07/19 06:38:40;;;;;;;13.80;6.10;;;;;;;;;;3577977;40;20270;-40
2021/07/19 06:41:26;;;;;;;8.68;5.30;;;;;;;;;;3578166;40;20251;-40
2021/07/19 06:43:53;;;;;;;10.95;5.18;;;;;;;;;;3568402;40;20235;-42
2021/07/19 06:46:21;;;;;;;8.20;5.47;;;;;;;;;;3575209;40;20241;-42
2021/07/19 06:48:50;;;;;;;9.32;5.55;;;;;;;;;;3581514;40;20522;-40
2021/07/19 06:51:18;;;;;;;9.45;5.30;;;;;;;;;;3575794;40;20231;-42
2021/07/19 06:53:45;;;;;;;7.63;4.40;;;;;;;;;;3572109;40;20246;-39
2021/07/19 06:56:12;;;;;;;10.00;4.70;;;;;;;;;;3575371;40;20244;-40
2021/07/19 06:58:40;;;;;;;7.30;4.50;;;;;;;;;;3571311;40;20243;-42
2021/07/19 07:01:07;;;;;;;11.68;4.93;;;;;;;;;;3577388;40;20277;-40
2021/07/19 07:03:35;;;;;;;8.20;5.13;;;;;;;;;;3569761;40;20242;-40
2021/07/19 07:06:16;;;;;;;8.02;4.53;;;;;;;;;;3568005;40;20232;-40
2021/07/19 07:08:43;;;;;;;11.10;4.70;;;;;;;;;;3567867;40;20251;-40
2021/07/19 07:11:10;;;;;;;7.47;4.68;;;;;;;;;;3559484;40;20248;-42
2021/07/19 07:13:40;;;;;;;8.73;4.07;;;;;;;;;;3569255;40;20507;-40
2021/07/19 07:16:09;;;;;;;10.93;5.28;;;;;;;;;;3579151;40;20273;-41
2021/07/19 07:18:42;;;;;;;10.00;4.38;;;;;;;;;;3578465;40;20265;-41
2021/07/19 07:21:23;;;;;;;11.38;5.18;;;;;;;;;;3569169;40;20602;-41
2021/07/19 07:23:56;;;;;;;5.78;4.57;;;;;;;;;;3569027;40;20251;-41
2021/07/19 07:26:30;;;;;;;8.23;4.45;;;;;;;;;;3577231;40;20328;-40
2021/07/19 07:29:04;;;;;;;4.70;4.03;;;;;;;;;;3577222;40;20251;-40
2021/07/19 07:31:31;;;;;;;10.40;4.53;;;;;;;;;;3573156;40;20239;-40
2021/07/19 07:34:00;;;;;;;9.00;4.50;;;;;;;;;;3578727;40;20523;-41
2021/07/19 07:36:35;;;;;;;7.68;4.00;;;;;;;;;;3572116;40;20622;-40
2021/07/19 07:39:14;;;;;;;10.95;4.40;;;;;;;;;;3578906;40;20235;-40
2021/07/19 07:41:47;;;;;;;4.57;3.63;;;;;;;;;;3575667;40;20260;-40
2021/07/19 07:48:32;;;;;;;8.68;4.13;;;;;;;;;;5463892;23;20242;-78
2021/07/19 07:52:06;;;;;;;7.93;3.85;;;;;;;;;;3585690;39;20216;-80
2021/07/19 07:54:38;;;;;;;8.68;3.75;;;;;;;;;;3583958;39;20270;-81
2021/07/19 07:57:05;;;;;;;7.95;4.53;;;;;;;;;;3589039;39;20231;-84
2021/07/19 08:03:35;;;;;;;6.75;4.00;;;;;;;;;;3575725;40;20262;-81
2021/07/19 08:09:57;;;;;;;8.00;4.07;;;;;;;;;;3577237;40;20223;-83
2021/07/19 08:12:27;;;;;;;6.55;3.42;;;;;;;;;;3566086;40;20240;-80
2021/07/19 08:15:28;;;;;;;6.20;3.33;;;;;;;;;;3572531;40;20216;-83
2021/07/19 08:17:55;;;;;;;5.97;3.78;;;;;;;;;;3571873;40;20733;-80
2021/07/19 08:20:23;;;;;;;5.45;3.13;;;;;;;;;;3581043;40;20224;-82
2021/07/19 08:22:50;;;;;;;7.18;3.30;;;;;;;;;;3565828;40;20221;-80
2021/07/19 08:25:19;;;;;;;7.15;3.58;;;;;;;;;;3575566;40;20244;-83
2021/07/19 08:27:47;;;;;;;8.82;3.88;;;;;;;;;;3564024;40;20240;-81
2021/07/19 08:30:15;;;;;;;7.60;3.40;;;;;;;;;;3572739;40;20253;-82
2021/07/19 08:33:01;;;;;;;7.93;3.63;;;;;;;;;;3578168;40;20261;-81
2021/07/19 08:35:34;;;;;;;7.60;4.05;;;;;;;;;;3574422;40;20237;-80
2021/07/19 08:38:02;;;;;;;7.00;3.63;;;;;;;;;;3571554;40;20223;-82
2021/07/19 08:40:40;;;;;;;9.57;3.38;;;;;;;;;;3572973;40;20228;-83
2021/07/19 08:43:07;;;;;;;6.78;4.35;;;;;;;;;;3580231;40;20244;-82
2021/07/19 08:45:34;;;;;;;7.55;4.03;;;;;;;;;;3582104;40;20252;-83
2021/07/19 08:48:02;;;;;;;7.28;4.03;;;;;;;;;;3578497;40;20246;-80
2021/07/19 08:50:42;;;;;;;8.20;4.15;;;;;;;;;;3565665;40;20239;-80
2021/07/19 08:53:49;;;;;;;5.90;3.72;;;;;;;;;;3578162;40;20233;-85
2021/07/19 09:03:42;;;;;;;8.48;3.88;;;;;;;;;;3575390;40;20236;-80
2021/07/19 09:06:22;;;;;;;4.90;3.42;;;;;;;;;;3559466;40;20239;-81
2021/07/19 09:12:32;;;;;;;6.45;3.10;;;;;;;;;;3576885;40;20743;-81
2021/07/19 09:18:48;;;;;;;6.10;3.80;;;;;;;;;;3574217;40;20812;-80
2021/07/19 09:21:30;;;;;;;7.03;3.95;;;;;;;;;;3573150;40;20245;-81
2021/07/19 09:31:41;;;;;;;6.65;3.13;;;;;;;;;;3574045;40;20298;-80
2021/07/19 09:34:29;;;;;;;3.35;2.95;;;;;;;;;;3576316;40;20250;-81
2021/07/19 09:37:03;;;;;;;5.60;3.88;;;;;;;;;;3577562;40;20216;-79
2021/07/19 09:39:32;;;;;;;8.57;4.25;;;;;;;;;;3572059;40;20236;-81
2021/07/19 09:42:09;;;;;;;5.40;4.20;;;;;;;;;;3572175;40;20767;-79
2021/07/19 09:44:36;;;;;;;7.90;5.18;;;;;;;;;;3575694;40;20248;-83
2021/07/19 09:47:05;;;;;;;8.15;4.45;;;;;;;;;;3564902;40;20227;-80
2021/07/19 09:49:34;;;;;;;5.57;4.18;;;;;;;;;;3574847;40;20235;-82
2021/07/19 09:52:02;;;;;;;6.25;4.00;;;;;;;;;;3579147;40;20241;-80
2021/07/19 09:54:34;;;;;;;5.38;4.45;;;;;;;;;;3581546;40;20224;-81
2021/07/19 09:57:02;;;;;;;7.13;3.95;;;;;;;;;;3581807;40;20223;-79
2021/07/19 09:59:37;;;;;;;5.57;4.10;;;;;;;;;;3581538;40;20235;-82
2021/07/19 10:02:11;;;;;;;8.70;4.65;;;;;;;;;;3578651;39;20212;-81
2021/07/19 10:04:45;;;;;;;5.68;4.28;;;;;;;;;;3571544;40;20247;-80
2021/07/19 10:07:23;;;;;;;4.20;3.78;;;;;;;;;;3563135;40;20228;-80
2021/07/19 10:09:51;;;;;;;4.47;4.05;;;;;;;;;;3563375;40;20232;-81
2021/07/19 10:12:36;;;;;;;9.45;4.35;;;;;;;;;;3571842;40;20268;-79
2021/07/19 10:15:10;;;;;;;6.72;4.53;;;;;;;;;;3563423;40;20233;-81
2021/07/19 10:17:38;;;;;;;6.05;4.53;;;;;;;;;;3571661;40;20248;-79
2021/07/19 10:20:07;;;;;;;4.22;3.67;;;;;;;;;;3574482;40;20236;-79
2021/07/19 10:22:35;;;;;;;7.53;4.50;;;;;;;;;;3573265;40;20270;-82
2021/07/19 10:25:02;;;;;;;7.00;4.60;;;;;;;;;;3581613;40;20243;-79
2021/07/19 10:27:30;;;;;;;7.55;4.85;;;;;;;;;;3573699;40;20232;-80
2021/07/19 10:29:57;;;;;;;6.03;3.88;;;;;;;;;;3571642;40;20261;-81
2021/07/19 10:32:32;;;;;;;6.22;4.22;;;;;;;;;;3571862;40;20249;-80
2021/07/19 10:35:20;;;;;;;7.20;4.28;;;;;;;;;;3564426;40;20741;-79
2021/07/19 10:37:55;;;;;;;7.15;4.72;;;;;;;;;;3570870;40;20240;-83
2021/07/19 10:40:38;;;;;;;4.72;3.97;;;;;;;;;;3563020;40;20236;-80
2021/07/19 10:43:06;;;;;;;6.13;4.55;;;;;;;;;;3571672;40;20280;-81
2021/07/19 10:45:54;;;;;;;6.53;4.32;;;;;;;;;;3573177;40;20289;-80
2021/07/19 10:48:28;;;;;;;5.63;3.90;;;;;;;;;;3572959;40;20248;-79
2021/07/19 10:51:14;;;;;;;4.00;3.60;;;;;;;;;;3573115;40;20804;-81
2021/07/19 10:53:47;;;;;;;6.43;4.45;;;;;;;;;;3573199;40;20710;-80
2021/07/19 10:56:15;;;;;;;9.23;4.47;;;;;;;;;;3577342;40;20238;-82
2021/07/19 10:58:44;;;;;;;6.05;4.47;;;;;;;;;;3575849;40;20455;-87
2021/07/19 11:01:21;;;;;;;5.30;4.20;;;;;;;;;;3583219;40;20215;-80
2021/07/19 11:03:48;;;;;;;4.90;4.50;;;;;;;;;;3569898;40;20220;-81
2021/07/19 11:06:17;;;;;;;7.10;5.30;;;;;;;;;;3573250;40;20809;-79
2021/07/19 11:08:52;;;;;;;3.80;3.33;;;;;;;;;;3573640;40;20939;-80
2021/07/19 11:11:32;;;;;;;4.57;4.13;;;;;;;;;;3570107;40;20259;-80
2021/07/19 11:14:06;;;;;;;5.25;4.75;;;;;;;;;;3583004;40;20786;-80
2021/07/19 11:16:41;;;;;;;6.47;4.70;;;;;;;;;;3573827;40;20231;-79
2021/07/19 11:19:30;;;;;;;6.28;4.85;;;;;;;;;;3557171;40;20783;-80
2021/07/19 11:22:11;;;;;;;6.32;4.85;;;;;;;;;;3573278;40;20240;-80
2021/07/19 11:24:40;;;;;;;5.45;4.40;;;;;;;;;;3573018;40;20255;-80
2021/07/19 11:27:08;;;;;;;7.38;4.82;;;;;;;;;;3574958;40;20232;-80
2021/07/19 11:29:35;;;;;;;7.85;4.28;;;;;;;;;;3583095;40;20228;-81
2021/07/19 11:32:07;;;;;;;7.63;4.32;;;;;;;;;;3583033;40;20242;-81
2021/07/19 11:34:47;;;;;;;6.13;5.13;;;;;;;;;;3575259;40;20767;-80
2021/07/19 11:37:33;;;;;;;5.22;4.68;;;;;;;;;;3582814;40;20236;-80
2021/07/19 11:40:01;;;;;;;4.53;4.07;;;;;;;;;;3574277;40;20251;-82
2021/07/19 11:42:29;;;;;;;7.15;5.07;;;;;;;;;;3582883;40;20240;-85
2021/07/19 11:45:03;;;;;;;5.88;5.28;;;;;;;;;;3582842;40;20273;-82
2021/07/19 11:47:50;;;;;;;8.95;5.03;;;;;;;;;;3582835;40;20238;-81
2021/07/19 11:50:18;;;;;;;10.32;5.18;;;;;;;;;;3582396;40;20240;-81
2021/07/19 11:52:48;;;;;;;6.45;4.75;;;;;;;;;;3582924;40;20228;-80
2021/07/19 11:55:16;;;;;;;9.18;4.88;;;;;;;;;;3582613;40;20239;-80
2021/07/19 11:58:05;;;;;;;5.40;4.68;;;;;;;;;;3582302;40;20290;-80
2021/07/19 12:00:44;;;;;;;8.70;5.90;;;;;;;;;;3579414;40;20255;-81
2021/07/19 12:03:12;;;;;;;5.25;4.63;;;;;;;;;;3579947;40;20240;-80
2021/07/19 12:05:50;;;;;;;5.63;4.93;;;;;;;;;;3582581;40;20306;-81
2021/07/19 12:08:28;;;;;;;11.43;5.28;;;;;;;;;;3579362;40;20247;-79
2021/07/19 12:11:02;;;;;;;8.93;5.00;;;;;;;;;;3572360;40;20228;-81
2021/07/19 12:13:42;;;;;;;8.32;5.10;;;;;;;;;;3573628;40;20232;-81
2021/07/19 12:16:16;;;;;;;7.28;4.88;;;;;;;;;;3582001;40;20234;-80
2021/07/19 12:18:55;;;;;;;7.18;5.32;;;;;;;;;;3581351;40;20260;-80
2021/07/19 12:21:43;;;;;;;5.88;4.57;;;;;;;;;;3582677;40;20243;-80
2021/07/19 12:24:13;;;;;;;9.07;5.60;;;;;;;;;;3582510;40;20236;-79
2021/07/19 12:26:42;;;;;;;8.13;5.68;;;;;;;;;;3582428;40;20227;-80
2021/07/19 12:29:29;;;;;;;6.95;4.88;;;;;;;;;;3580365;40;20258;-80
2021/07/19 12:32:15;;;;;;;6.47;5.35;;;;;;;;;;3576764;40;20947;-81
2021/07/19 12:35:07;;;;;;;10.05;5.88;;;;;;;;;;3574985;40;20243;-79
2021/07/19 12:37:56;;;;;;;8.70;6.68;;;;;;;;;;3579724;40;20244;-81
2021/07/19 12:40:25;;;;;;;6.60;5.18;;;;;;;;;;3577923;40;20209;-80
2021/07/19 12:42:55;;;;;;;9.40;5.72;;;;;;;;;;3576991;40;20294;-79
2021/07/19 12:45:36;;;;;;;7.65;5.45;;;;;;;;;;3570156;39;20767;-81
2021/07/19 12:48:04;;;;;;;10.63;6.43;;;;;;;;;;3573536;40;20236;-79
2021/07/19 12:50:31;;;;;;;10.50;6.03;;;;;;;;;;3575940;40;20244;-80
2021/07/19 12:53:14;;;;;;;9.00;5.57;;;;;;;;;;3566615;40;20255;-79
2021/07/19 12:55:55;;;;;;;10.25;6.82;;;;;;;;;;3574856;40;20235;-79
2021/07/19 12:58:22;;;;;;;6.32;4.72;;;;;;;;;;3582010;40;20258;-80
2021/07/19 13:00:50;;;;;;;9.65;6.30;;;;;;;;;;3582301;40;20309;-79
2021/07/19 13:03:30;;;;;;;10.27;5.82;;;;;;;;;;3582261;40;20236;-83
2021/07/19 13:05:58;;;;;;;7.45;6.13;;;;;;;;;;3581850;40;20244;-80
2021/07/19 13:08:31;;;;;;;6.90;5.60;;;;;;;;;;3581359;40;20261;-83
2021/07/19 13:11:10;;;;;;;8.23;5.50;;;;;;;;;;3582281;40;20240;-80
2021/07/19 13:13:43;;;;;;;9.60;6.28;;;;;;;;;;3574207;40;20231;-81
2021/07/19 13:16:22;;;;;;;8.05;5.63;;;;;;;;;;3573997;40;20305;-80
2021/07/19 13:18:56;;;;;;;12.30;7.30;;;;;;;;;;3582030;40;20248;-79
2021/07/19 13:21:24;;;;;;;8.55;5.40;;;;;;;;;;3582277;40;20278;-79
2021/07/19 13:23:58;;;;;;;8.85;6.50;;;;;;;;;;3573881;40;20238;-80
2021/07/19 13:26:33;;;;;;;8.77;6.32;;;;;;;;;;3577319;40;20240;-79
2021/07/19 13:29:07;;;;;;;8.45;6.85;;;;;;;;;;3575321;40;21064;-82
2021/07/19 13:31:34;;;;;;;8.35;5.95;;;;;;;;;;3578195;40;20232;-83
2021/07/19 13:34:02;;;;;;;6.80;6.10;;;;;;;;;;3575206;40;20243;-80
2021/07/19 13:36:33;;;;;;;8.00;5.88;;;;;;;;;;3577519;40;20217;-82
2021/07/19 13:39:06;;;;;;;7.22;6.13;;;;;;;;;;3580143;40;20279;-81
2021/07/19 13:41:41;;;;;;;8.50;5.70;;;;;;;;;;3580212;40;20228;-84
2021/07/19 13:44:08;;;;;;;6.80;5.60;;;;;;;;;;3574539;40;20256;-81
2021/07/19 13:46:35;;;;;;;9.82;6.53;;;;;;;;;;3578131;40;20248;-83
2021/07/19 13:49:09;;;;;;;9.27;6.30;;;;;;;;;;3563878;40;20257;-83
2021/07/19 13:51:48;;;;;;;10.70;5.82;;;;;;;;;;3572034;40;20766;-82
2021/07/19 13:54:21;;;;;;;8.77;5.93;;;;;;;;;;3578250;40;20239;-82
2021/07/19 13:57:08;;;;;;;7.63;6.55;;;;;;;;;;3571927;40;20231;-83
2021/07/19 13:59:35;;;;;;;5.95;5.25;;;;;;;;;;3575971;40;20806;-81
2021/07/19 14:02:08;;;;;;;10.60;6.18;;;;;;;;;;3600375;22;20694;-39
2021/07/19 14:04:54;;;;;;;6.80;5.57;;;;;;;;;;3570983;40;20329;-39
2021/07/19 14:07:21;;;;;;;7.50;6.60;;;;;;;;;;3569669;40;20369;-40
2021/07/19 14:10:07;;;;;;;9.40;7.30;;;;;;;;;;3572002;40;20243;-39
2021/07/19 14:12:54;;;;;;;8.95;6.00;;;;;;;;;;3574933;40;20240;-38
2021/07/19 14:15:39;;;;;;;10.02;6.75;;;;;;;;;;3572140;40;20270;-38
2021/07/19 14:18:23;;;;;;;7.35;6.47;;;;;;;;;;3592283;39;20234;-83
2021/07/19 14:20:51;;;;;;;11.38;6.97;;;;;;;;;;3591857;39;20246;-83
2021/07/19 14:23:20;;;;;;;10.27;6.18;;;;;;;;;;3592446;39;20276;-83
2021/07/19 14:25:48;;;;;;;7.07;6.13;;;;;;;;;;3582119;39;20243;-83
2021/07/19 14:28:22;;;;;;;8.68;6.20;;;;;;;;;;3592079;39;20239;-84
2021/07/19 14:30:50;;;;;;;10.90;6.50;;;;;;;;;;3592385;39;20260;-86
2021/07/19 14:33:36;;;;;;;8.60;6.47;;;;;;;;;;3592501;39;20273;-84
2021/07/19 14:36:16;;;;;;;13.60;7.30;;;;;;;;;;3583627;39;20223;-84
2021/07/19 14:38:43;;;;;;;11.90;8.65;;;;;;;;;;3592125;39;20301;-82
2021/07/19 14:41:11;;;;;;;22.63;16.17;;;;;;;;;;3592247;39;20781;-87
2021/07/19 14:43:41;;;;;;;13.25;9.68;;;;;;;;;;3592298;39;20839;-84
2021/07/19 14:46:08;;;;;;;10.05;6.68;;;;;;;;;;3592171;39;20239;-84
2021/07/19 14:48:42;;;;;;;11.00;7.68;;;;;;;;;;3592148;39;20223;-82
2021/07/19 14:51:12;;;;;;;8.55;6.72;;;;;;;;;;3592250;39;20207;-84
2021/07/19 14:53:51;;;;;;;7.68;6.53;;;;;;;;;;3592104;39;20688;-85
2021/07/19 14:56:24;;;;;;;7.68;6.90;;;;;;;;;;3592116;39;20243;-83
2021/07/19 14:58:58;;;;;;;12.77;9.93;;;;;;;;;;3592053;39;20222;-86
2021/07/19 15:01:44;;;;;;;6.40;5.80;;;;;;;;;;3592221;39;20233;-84
2021/07/19 15:04:18;;;;;;;10.20;7.70;;;;;;;;;;3591559;39;20273;-83
2021/07/19 15:06:45;;;;;;;9.23;7.60;;;;;;;;;;3583384;39;20212;-83
2021/07/19 15:09:12;;;;;;;10.10;7.18;;;;;;;;;;3591933;39;20889;-85
2021/07/19 15:11:39;;;;;;;8.77;7.00;;;;;;;;;;3592020;39;20251;-83
2021/07/19 15:14:08;;;;;;;12.40;7.38;;;;;;;;;;3592027;39;20292;-84
2021/07/19 15:16:42;;;;;;;9.75;6.57;;;;;;;;;;3591937;39;20235;-83
2021/07/19 15:19:21;;;;;;;9.23;7.22;;;;;;;;;;3591820;39;20266;-84
2021/07/19 15:21:49;;;;;;;14.48;9.57;;;;;;;;;;3583230;39;20736;-83
2021/07/19 15:24:16;;;;;;;12.07;10.77;;;;;;;;;;3591349;39;20239;-87
2021/07/19 15:26:56;;;;;;;9.13;7.40;;;;;;;;;;3591829;39;20246;-84
2021/07/19 15:29:25;;;;;;;12.25;6.05;;;;;;;;;;3583199;39;20754;-84
2021/07/19 15:31:52;;;;;;;6.55;5.50;;;;;;;;;;3593586;39;20216;-84
2021/07/19 15:34:19;;;;;;;8.82;5.93;;;;;;;;;;3593454;39;20219;-84
2021/07/19 15:36:53;;;;;;;7.38;6.07;;;;;;;;;;3593337;39;20293;-83
2021/07/19 15:39:20;;;;;;;8.73;7.18;;;;;;;;;;3593214;39;20247;-84
2021/07/19 15:41:47;;;;;;;8.18;6.35;;;;;;;;;;3593440;39;20235;-83
2021/07/19 15:44:15;;;;;;;9.73;7.15;;;;;;;;;;3593399;39;20247;-85
2021/07/19 15:47:02;;;;;;;7.72;6.40;;;;;;;;;;3585966;39;20279;-83
2021/07/19 15:49:30;;;;;;;11.70;7.32;;;;;;;;;;3593378;39;20259;-83
2021/07/19 15:51:57;;;;;;;11.15;6.95;;;;;;;;;;3592672;39;20228;-82
2021/07/19 15:54:30;;;;;;;10.00;7.45;;;;;;;;;;3593344;39;20627;-86
2021/07/19 15:57:17;;;;;;;8.43;7.43;;;;;;;;;;3593238;39;20281;-82
2021/07/19 15:59:44;;;;;;;11.93;7.30;;;;;;;;;;3584760;39;20230;-83
2021/07/19 16:02:13;;;;;;;9.23;7.30;;;;;;;;;;3593042;39;20683;-80
2021/07/19 16:04:41;;;;;;;12.48;7.45;;;;;;;;;;3593363;39;20219;-83
2021/07/19 16:07:08;;;;;;;10.13;7.70;;;;;;;;;;3592968;39;20243;-85
2021/07/19 16:09:35;;;;;;;12.85;8.27;;;;;;;;;;3592497;39;20255;-83
2021/07/19 16:12:03;;;;;;;10.60;7.93;;;;;;;;;;3584791;39;20231;-84
2021/07/19 16:14:30;;;;;;;9.05;6.75;;;;;;;;;;3593260;39;20246;-86
2021/07/19 16:16:57;;;;;;;12.15;7.55;;;;;;;;;;3592865;39;20279;-81
2021/07/19 16:19:26;;;;;;;8.32;6.30;;;;;;;;;;3593029;39;20231;-82
2021/07/19 16:21:54;;;;;;;8.93;7.03;;;;;;;;;;3590198;39;20232;-81
2021/07/19 16:24:21;;;;;;;8.85;7.13;;;;;;;;;;3582754;40;20227;-84
2021/07/19 16:26:48;;;;;;;10.00;6.70;;;;;;;;;;3582956;40;20231;-83
2021/07/19 16:29:16;;;;;;;12.52;7.55;;;;;;;;;;3582933;40;20266;-84
2021/07/19 16:31:43;;;;;;;9.00;7.88;;;;;;;;;;3582952;40;20208;-82
2021/07/19 16:34:11;;;;;;;10.30;7.78;;;;;;;;;;3585426;39;20565;-84
2021/07/19 16:36:40;;;;;;;9.95;7.32;;;;;;;;;;3592423;39;20616;-83
2021/07/19 16:39:08;;;;;;;11.70;7.80;;;;;;;;;;3592831;39;20242;-81
2021/07/19 16:41:35;;;;;;;13.27;7.32;;;;;;;;;;3584240;39;20227;-82
2021/07/19 16:44:02;;;;;;;9.77;7.55;;;;;;;;;;3593081;39;20227;-83
2021/07/19 16:46:30;;;;;;;8.55;7.05;;;;;;;;;;3584370;39;20235;-83
2021/07/19 16:48:57;;;;;;;13.10;8.18;;;;;;;;;;3592924;39;20219;-82
2021/07/19 16:51:24;;;;;;;8.02;6.60;;;;;;;;;;3592945;39;20745;-86
2021/07/19 16:53:53;;;;;;;12.00;7.97;;;;;;;;;;3592646;39;20294;-83
2021/07/19 16:56:20;;;;;;;9.00;7.75;;;;;;;;;;3593052;39;20230;-84